createdAt,value
2023-12-11T00:03:52.741Z,6.57
2023-12-11T00:08:54.696Z,6.68
2023-12-11T00:13:57.325Z,6.74
2023-12-11T00:18:59.443Z,7.20
2023-12-11T00:24:01.577Z,7.02
2023-12-11T00:29:03.594Z,7.10
2023-12-11T00:34:05.624Z,6.81
2023-12-11T00:39:08.210Z,7.29
2023-12-11T00:44:10.231Z,7.26
2023-12-11T00:49:12.367Z,7.51
2023-12-11T00:54:14.444Z,7.44
2023-12-11T00:59:16.401Z,7.37
2023-12-11T01:04:18.508Z,7.33
2023-12-11T01:09:20.456Z,7.55
2023-12-11T01:14:22.632Z,7.56
2023-12-11T01:19:24.688Z,7.72
2023-12-11T01:24:26.905Z,7.80
2023-12-11T01:29:28.925Z,7.81
2023-12-11T01:34:30.939Z,7.74
2023-12-11T01:39:32.949Z,7.87
2023-12-11T01:44:36.943Z,7.99
2023-12-11T01:49:39.997Z,7.79
2023-12-11T01:54:42.772Z,8.08
2023-12-11T01:59:49.125Z,7.95
2023-12-11T02:04:51.632Z,7.86
2023-12-11T02:09:53.879Z,7.94
2023-12-11T02:14:55.805Z,7.88
2023-12-11T02:19:57.775Z,7.86
2023-12-11T02:25:03.575Z,7.80
2023-12-11T02:30:06.282Z,7.81
2023-12-11T02:35:08.260Z,7.82
2023-12-11T02:40:10.463Z,7.69
2023-12-11T02:45:12.549Z,7.66
2023-12-11T02:50:14.551Z,7.80
2023-12-11T02:55:16.555Z,7.70
2023-12-11T03:00:18.629Z,7.57
2023-12-11T03:05:20.917Z,7.72
2023-12-11T03:10:24.450Z,7.66
2023-12-11T03:15:26.541Z,7.70
2023-12-11T03:20:28.571Z,7.74
2023-12-11T03:25:30.500Z,7.57
2023-12-11T03:30:32.493Z,7.52
2023-12-11T03:35:34.478Z,7.60
2023-12-11T03:40:36.459Z,7.28
2023-12-11T03:45:38.675Z,7.61
2023-12-11T03:50:40.688Z,7.59
2023-12-11T03:55:42.706Z,7.46
2023-12-11T04:00:44.888Z,7.56
2023-12-11T04:05:47.818Z,7.32
2023-12-11T04:10:50.002Z,7.47
2023-12-11T04:15:51.915Z,7.42
2023-12-11T04:20:53.874Z,7.42
2023-12-11T04:26:00.272Z,7.42
2023-12-11T04:31:02.406Z,7.45
2023-12-11T04:36:08.901Z,7.32
2023-12-11T04:41:10.809Z,7.40
2023-12-11T04:46:12.779Z,7.47
2023-12-11T04:51:15.047Z,7.39
2023-12-11T04:56:17.458Z,7.57
2023-12-11T05:01:19.517Z,7.56
2023-12-11T05:06:21.552Z,7.38
2023-12-11T05:11:23.669Z,7.52
2023-12-11T05:16:27.760Z,7.15
2023-12-11T05:21:30.089Z,7.56
2023-12-11T05:26:32.014Z,7.53
2023-12-11T05:31:34.423Z,7.58
2023-12-11T05:36:36.726Z,7.50
2023-12-11T05:41:38.903Z,7.45
2023-12-11T05:46:41.016Z,7.51
2023-12-11T05:51:43.338Z,7.51
2023-12-11T05:56:45.402Z,7.64
2023-12-11T06:01:48.907Z,7.71
2023-12-11T06:06:51.007Z,7.59
2023-12-11T06:11:53.018Z,7.27
2023-12-11T06:16:54.952Z,7.72
2023-12-11T06:21:56.879Z,7.72
2023-12-11T06:26:58.875Z,7.50
2023-12-11T06:32:00.766Z,7.58
2023-12-11T06:37:02.872Z,7.58
2023-12-11T06:42:06.709Z,7.66
2023-12-11T06:47:08.855Z,7.68
2023-12-11T06:52:10.967Z,7.59
2023-12-11T06:57:12.980Z,7.64
2023-12-11T07:02:15.048Z,7.60
2023-12-11T07:07:17.026Z,7.56
2023-12-11T07:12:19.316Z,7.58
2023-12-11T07:17:21.232Z,7.76
2023-12-11T07:22:23.392Z,7.73
2023-12-11T07:27:28.600Z,7.58
2023-12-11T07:32:30.710Z,7.59
2023-12-11T07:37:33.289Z,7.66
2023-12-11T07:42:35.358Z,7.62
2023-12-11T07:47:37.499Z,7.60
2023-12-11T07:52:39.555Z,7.56
2023-12-11T07:57:42.400Z,7.56
2023-12-11T08:02:44.526Z,7.69
2023-12-11T08:07:46.588Z,7.77
2023-12-11T08:12:55.167Z,7.80
2023-12-11T08:17:57.215Z,7.77
2023-12-11T08:22:59.333Z,7.91
2023-12-11T08:28:01.347Z,7.85
2023-12-11T08:33:03.361Z,7.73
2023-12-11T08:38:05.385Z,7.77
2023-12-11T08:43:07.902Z,7.70
2023-12-11T08:48:10.268Z,7.71
2023-12-11T08:53:12.220Z,7.59
2023-12-11T08:58:14.293Z,7.59
2023-12-11T09:03:16.331Z,7.69
2023-12-11T09:08:18.315Z,7.77
2023-12-11T09:13:20.355Z,7.66
2023-12-11T09:18:22.436Z,7.79
2023-12-11T09:23:24.510Z,7.89
2023-12-11T09:28:31.484Z,7.88
2023-12-11T09:33:36.334Z,7.93
2023-12-11T09:38:38.764Z,7.91
2023-12-11T09:43:41.134Z,8.12
2023-12-11T09:48:44.439Z,7.87
2023-12-11T09:53:47.630Z,8.09
2023-12-11T09:58:50.717Z,8.32
2023-12-11T10:03:52.660Z,8.64
2023-12-11T10:08:55.190Z,8.78
2023-12-11T10:14:12.222Z,8.85
2023-12-11T10:19:15.352Z,8.86
2023-12-11T10:24:17.382Z,9.08
2023-12-11T10:29:22.900Z,8.66
2023-12-11T10:34:45.417Z,8.75
2023-12-11T10:39:57.341Z,8.96
2023-12-11T10:44:59.335Z,8.79
2023-12-11T10:50:04.135Z,8.70
2023-12-11T10:55:06.512Z,8.67
2023-12-11T11:00:09.239Z,8.54
2023-12-11T11:05:13.376Z,8.72
2023-12-11T11:10:21.822Z,8.49
2023-12-11T11:15:27.032Z,8.72
2023-12-11T11:20:30.942Z,8.59
2023-12-11T11:25:34.465Z,8.65
2023-12-11T11:30:42.813Z,8.68
2023-12-11T11:35:45.181Z,8.71
2023-12-11T11:40:50.115Z,8.75
2023-12-11T11:46:00.899Z,8.71
2023-12-11T11:51:02.852Z,8.80
2023-12-11T11:56:05.214Z,8.41
2023-12-11T12:01:07.651Z,8.19
2023-12-11T12:06:11.074Z,8.19
2023-12-11T12:11:13.272Z,8.16
2023-12-11T12:16:28.611Z,8.21
2023-12-11T12:21:30.607Z,8.24
2023-12-11T12:26:35.078Z,8.07
2023-12-11T12:31:40.973Z,8.10
2023-12-11T12:36:44.080Z,7.99
2023-12-11T12:41:50.924Z,8.15
2023-12-11T12:46:54.509Z,8.25
2023-12-11T12:51:56.729Z,8.12
2023-12-11T12:57:00.320Z,8.18
2023-12-11T13:02:02.498Z,8.11
2023-12-11T13:07:11.904Z,8.23
2023-12-11T13:12:20.216Z,8.36
2023-12-11T13:17:22.184Z,8.33
2023-12-11T13:22:24.160Z,8.27
2023-12-11T13:27:30.458Z,8.15
2023-12-11T13:32:32.571Z,8.12
2023-12-11T13:37:34.837Z,8.08
2023-12-11T13:42:37.512Z,7.94
2023-12-11T13:47:40.200Z,8.19
2023-12-11T13:52:42.258Z,8.22
2023-12-11T13:57:44.278Z,8.24
2023-12-11T14:03:00.536Z,8.11
2023-12-11T14:08:06.806Z,8.05
2023-12-11T14:13:14.045Z,7.74
2023-12-11T14:18:16.374Z,7.84
2023-12-11T14:23:18.287Z,7.71
2023-12-11T14:28:20.378Z,7.74
2023-12-11T14:33:22.294Z,7.68
2023-12-11T14:38:24.277Z,7.71
2023-12-11T14:43:26.956Z,7.47
2023-12-11T14:48:29.091Z,7.48
2023-12-11T14:53:31.106Z,7.51
2023-12-11T14:58:36.347Z,7.43
2023-12-11T15:03:38.476Z,7.56
2023-12-11T15:08:41.222Z,7.40
2023-12-11T15:13:44.170Z,7.49
2023-12-11T15:18:47.941Z,7.06
2023-12-11T15:23:51.184Z,7.35
2023-12-11T15:28:53.102Z,7.30
2023-12-11T15:33:55.059Z,7.12
2023-12-11T15:38:57.133Z,7.23
2023-12-11T15:43:59.002Z,7.19
2023-12-11T15:49:02.075Z,7.14
2023-12-11T15:54:04.223Z,7.20
2023-12-11T15:59:06.157Z,6.99
2023-12-11T16:04:08.632Z,7.10
2023-12-11T16:09:12.258Z,6.95
2023-12-11T16:14:14.880Z,6.88
2023-12-11T16:19:17.016Z,7.03
2023-12-11T16:24:19.369Z,6.97
2023-12-11T16:29:22.467Z,6.65
2023-12-11T16:34:24.873Z,6.99
2023-12-11T16:39:27.203Z,7.06
2023-12-11T16:44:29.148Z,7.03
2023-12-11T16:49:32.621Z,6.88
2023-12-11T16:54:35.904Z,6.98
2023-12-11T16:59:37.797Z,6.78
2023-12-11T17:04:39.733Z,6.93
2023-12-11T17:09:41.737Z,6.82
2023-12-11T17:14:44.117Z,6.83
2023-12-11T17:19:46.182Z,6.81
2023-12-11T17:24:49.608Z,6.70
2023-12-11T17:29:51.653Z,6.76
2023-12-11T17:34:53.807Z,6.68
2023-12-11T17:39:57.454Z,6.45
2023-12-11T17:45:00.340Z,6.42
2023-12-11T17:50:02.342Z,6.51
2023-12-11T17:55:08.273Z,6.52
2023-12-11T18:00:11.783Z,6.36
2023-12-11T18:05:16.113Z,6.50
2023-12-11T18:10:19.405Z,6.59
2023-12-11T18:15:21.331Z,6.53
2023-12-11T18:20:23.262Z,6.46
2023-12-11T18:25:25.256Z,6.51
2023-12-11T18:30:27.285Z,6.57
2023-12-11T18:35:29.632Z,6.58
2023-12-11T18:40:31.753Z,6.33
2023-12-11T18:45:35.014Z,6.38
2023-12-11T18:50:39.820Z,6.27
2023-12-11T19:02:23.243Z,3.32
2023-12-11T19:07:27.796Z,6.11
2023-12-11T19:12:30.448Z,6.35
2023-12-11T19:17:35.761Z,6.11
2023-12-11T19:22:38.839Z,6.48
2023-12-11T19:27:46.774Z,6.26
2023-12-11T19:32:49.455Z,6.00
2023-12-11T19:38:28.035Z,6.51
2023-12-11T19:43:30.793Z,6.17
2023-12-11T19:48:33.454Z,6.37
2023-12-11T19:53:35.860Z,6.37
2023-12-11T19:58:37.872Z,6.16
2023-12-11T20:03:45.578Z,6.19
2023-12-11T20:08:47.772Z,6.45
2023-12-11T20:13:52.699Z,6.19
2023-12-11T20:18:54.999Z,6.41
2023-12-11T20:23:57.253Z,6.32
2023-12-11T20:28:59.959Z,5.94
2023-12-11T20:34:02.176Z,6.28
2023-12-11T20:39:04.864Z,5.64
2023-12-11T20:44:07.158Z,6.07
2023-12-11T20:49:09.592Z,5.94
2023-12-11T20:54:12.200Z,5.94
2023-12-11T20:59:16.545Z,5.77
2023-12-11T21:04:19.668Z,6.17
2023-12-11T21:09:21.738Z,6.03
2023-12-11T21:14:23.808Z,5.91
2023-12-11T21:19:44.098Z,6.25
2023-12-11T21:24:46.494Z,5.92
2023-12-11T21:29:48.584Z,6.19
2023-12-11T21:34:51.074Z,5.78
2023-12-11T21:39:54.290Z,6.25
2023-12-11T21:44:56.714Z,6.08
2023-12-11T21:49:58.755Z,6.02
2023-12-11T21:55:00.957Z,5.82
2023-12-11T22:00:03.079Z,6.16
2023-12-11T22:05:13.984Z,6.12
2023-12-11T22:10:16.175Z,6.19
2023-12-11T22:15:18.274Z,5.80
2023-12-11T22:20:20.378Z,5.82
2023-12-11T22:25:22.831Z,6.12
2023-12-11T22:30:25.788Z,5.82
2023-12-11T22:35:28.886Z,6.18
2023-12-11T22:40:30.937Z,5.42
2023-12-11T22:45:33.406Z,5.93
2023-12-11T22:50:35.802Z,6.06
2023-12-11T22:55:38.140Z,6.13
2023-12-11T23:00:40.164Z,5.99
2023-12-11T23:05:42.148Z,5.78
2023-12-11T23:10:45.628Z,5.54
2023-12-11T23:15:51.435Z,6.06
2023-12-11T23:20:53.535Z,5.94
2023-12-11T23:26:01.443Z,5.84
2023-12-11T23:31:07.271Z,5.80
2023-12-11T23:36:10.199Z,5.49
2023-12-11T23:41:12.331Z,5.91
2023-12-11T23:46:14.337Z,5.89
2023-12-11T23:51:16.518Z,5.84
2023-12-11T23:56:18.504Z,5.59
